Time;durP1;ratioP1;P1;durP2;ratioP2;P2;SDS_P1;SDS_P2;PMS_P1;PMS_P2;Temp;Humidity;BMP_temperature;BMP_pressure;BME280_temperature;BME280_humidity;BME280_pressure;Samples;Min_cycle;Max_cycle;Signal;HPM_P1;HPM_P2
2023/01/21 00:00:04;;;;;;;0.60;0.60;;;-0.70;99.90;;;;;;5052841;28;20225;-73
2023/01/21 00:02:30;;;;;;;0.70;0.70;;;-0.70;99.90;;;;;;5035556;28;20201;-73
2023/01/21 00:04:56;;;;;;;0.47;0.47;;;-0.70;99.90;;;;;;5072822;28;20215;-74
2023/01/21 00:07:21;;;;;;;0.60;0.60;;;-0.80;99.90;;;;;;5072689;28;20205;-73
2023/01/21 00:09:47;;;;;;;0.50;0.50;;;-0.80;99.90;;;;;;5072637;28;20193;-73
2023/01/21 00:12:14;;;;;;;0.50;0.50;;;-0.70;99.90;;;;;;5054708;28;20220;-73
2023/01/21 00:14:39;;;;;;;0.60;0.60;;;-0.70;99.90;;;;;;5072562;28;20582;-74
2023/01/21 00:17:05;;;;;;;0.50;0.50;;;-0.70;99.90;;;;;;5071438;28;20269;-74
2023/01/21 00:19:31;;;;;;;0.60;0.60;;;-0.70;99.90;;;;;;5025532;28;20201;-73
2023/01/21 00:21:56;;;;;;;0.70;0.70;;;-0.60;99.90;;;;;;5036423;28;20541;-74
2023/01/21 00:24:23;;;;;;;0.80;0.80;;;-0.60;99.90;;;;;;5036175;28;20190;-74
2023/01/21 00:26:50;;;;;;;2.72;0.95;;;-0.60;99.90;;;;;;5036379;28;20273;-73
2023/01/21 00:29:15;;;;;;;0.60;0.60;;;-0.70;99.90;;;;;;5034429;28;20202;-73
2023/01/21 00:31:41;;;;;;;0.50;0.50;;;-0.60;99.90;;;;;;5034759;28;20214;-74
2023/01/21 00:34:07;;;;;;;0.60;0.60;;;-0.70;99.90;;;;;;5038254;28;20267;-73
2023/01/21 00:36:33;;;;;;;0.65;0.65;;;-0.70;99.90;;;;;;5055869;28;20659;-73
2023/01/21 00:38:58;;;;;;;0.60;0.60;;;-0.60;99.90;;;;;;5038235;28;20256;-73
2023/01/21 00:41:25;;;;;;;0.55;0.55;;;-0.60;99.90;;;;;;5055942;28;20213;-74
2023/01/21 00:43:51;;;;;;;0.55;0.55;;;-0.60;99.90;;;;;;5064016;28;20192;-75
2023/01/21 00:46:17;;;;;;;0.60;0.60;;;-0.60;99.90;;;;;;5075846;28;20667;-74
2023/01/21 00:48:42;;;;;;;0.60;0.60;;;-0.60;99.90;;;;;;5057334;28;20231;-73
2023/01/21 00:51:09;;;;;;;0.60;0.60;;;-0.70;99.90;;;;;;5075834;28;20654;-73
2023/01/21 00:53:37;;;;;;;0.63;0.63;;;-0.70;99.90;;;;;;5075529;28;20232;-73
2023/01/21 00:56:08;;;;;;;0.60;0.60;;;-0.70;99.90;;;;;;5057799;28;20716;-73
2023/01/21 00:58:34;;;;;;;0.70;0.70;;;-0.70;99.90;;;;;;5075457;28;20536;-73
2023/01/21 01:01:01;;;;;;;0.70;0.70;;;-0.70;99.90;;;;;;5075563;28;20197;-73
2023/01/21 01:03:27;;;;;;;0.50;0.50;;;-0.70;99.90;;;;;;5069432;28;20251;-73
2023/01/21 01:05:53;;;;;;;0.70;0.70;;;-0.70;99.90;;;;;;5057344;28;20240;-73
2023/01/21 01:08:18;;;;;;;0.60;0.60;;;-0.80;99.90;;;;;;5075232;28;20205;-74
2023/01/21 01:10:44;;;;;;;0.70;0.70;;;-0.70;99.90;;;;;;5074113;28;20201;-74
2023/01/21 01:13:10;;;;;;;0.63;0.63;;;-0.70;99.90;;;;;;5073968;28;20205;-73
2023/01/21 01:15:35;;;;;;;0.50;0.50;;;-0.70;99.90;;;;;;5063602;28;20204;-73
2023/01/21 01:18:01;;;;;;;0.70;0.70;;;-0.70;99.90;;;;;;5043446;28;20256;-73
2023/01/21 01:20:27;;;;;;;0.60;0.60;;;-0.70;99.90;;;;;;5033723;28;20201;-77
2023/01/21 01:22:53;;;;;;;0.50;0.50;;;-0.70;99.90;;;;;;5035272;28;20202;-77
2023/01/21 01:25:18;;;;;;;0.70;0.70;;;-0.70;99.90;;;;;;5034010;28;20205;-75
2023/01/21 01:27:44;;;;;;;0.57;0.57;;;-0.70;99.90;;;;;;5034033;28;20193;-75
2023/01/21 01:30:10;;;;;;;0.90;0.90;;;-0.80;99.90;;;;;;5053233;28;20276;-73
2023/01/21 01:32:36;;;;;;;0.70;0.70;;;-0.80;99.90;;;;;;5036401;28;20738;-74
2023/01/21 01:35:02;;;;;;;0.60;0.60;;;-0.80;99.90;;;;;;5054742;28;20211;-72
2023/01/21 01:37:27;;;;;;;0.70;0.70;;;-0.80;99.90;;;;;;5054759;28;20670;-73
2023/01/21 01:39:53;;;;;;;0.70;0.70;;;-0.80;99.90;;;;;;5060830;28;20690;-73
2023/01/21 01:42:19;;;;;;;0.85;0.85;;;-0.90;99.90;;;;;;5074809;28;20200;-74
2023/01/21 01:44:58;;;;;;;0.80;0.80;;;-0.90;99.90;;;;;;5056584;28;20201;-74
2023/01/21 01:47:37;;;;;;;0.60;0.60;;;-0.90;99.90;;;;;;5074597;28;20671;-73
2023/01/21 01:50:06;;;;;;;0.80;0.80;;;-0.90;99.90;;;;;;5074682;28;20697;-74
2023/01/21 01:52:32;;;;;;;0.60;0.60;;;-0.90;99.90;;;;;;5056334;28;20261;-75
2023/01/21 01:55:01;;;;;;;0.70;0.70;;;-0.90;99.90;;;;;;5074644;28;20556;-74
2023/01/21 01:57:33;;;;;;;0.70;0.70;;;-0.90;99.90;;;;;;5074240;28;20651;-73
2023/01/21 02:00:05;;;;;;;0.75;0.75;;;-0.90;99.90;;;;;;5074342;28;20243;-73
2023/01/21 02:02:33;;;;;;;0.77;0.77;;;-1.00;99.90;;;;;;5034418;23;20710;-74
2023/01/21 02:05:03;;;;;;;0.90;0.90;;;-1.00;99.90;;;;;;5043628;28;20545;-75
2023/01/21 02:07:38;;;;;;;0.70;0.70;;;-1.00;99.90;;;;;;5053580;28;20216;-75
2023/01/21 02:10:11;;;;;;;0.80;0.80;;;-1.00;99.90;;;;;;5053806;28;20558;-75
2023/01/21 02:12:40;;;;;;;0.60;0.60;;;-1.00;99.90;;;;;;5017696;28;20202;-75
2023/01/21 02:15:07;;;;;;;0.70;0.70;;;-1.10;99.90;;;;;;5033706;28;20194;-75
2023/01/21 02:17:59;;;;;;;0.70;0.70;;;-1.10;99.90;;;;;;5025646;28;20199;-74
2023/01/21 02:20:50;;;;;;;0.60;0.60;;;-1.10;99.90;;;;;;5013690;28;20310;-75
2023/01/21 02:23:42;;;;;;;0.60;0.60;;;-1.10;99.90;;;;;;5013757;28;20206;-74
2023/01/21 02:26:25;;;;;;;0.55;0.55;;;-1.10;99.90;;;;;;5006458;28;20242;-75
2023/01/21 02:29:00;;;;;;;0.60;0.60;;;-1.20;99.90;;;;;;5033362;28;20358;-75
2023/01/21 02:31:54;;;;;;;0.60;0.60;;;-1.20;99.90;;;;;;5031896;28;20205;-74
2023/01/21 02:34:32;;;;;;;0.60;0.60;;;-1.20;99.90;;;;;;5031914;28;20686;-75
2023/01/21 02:37:16;;;;;;;0.80;0.80;;;-1.20;99.90;;;;;;5031910;28;20564;-75
2023/01/21 02:40:11;;;;;;;1.33;0.98;;;-1.20;99.90;;;;;;5032577;28;20190;-74
2023/01/21 02:42:51;;;;;;;0.98;0.98;;;-1.30;99.90;;;;;;5032922;28;20186;-75
2023/01/21 02:45:28;;;;;;;0.70;0.70;;;-1.30;99.90;;;;;;5031845;28;20194;-75
2023/01/21 02:48:06;;;;;;;0.70;0.70;;;-1.30;99.90;;;;;;5015281;28;20563;-77
2023/01/21 02:50:43;;;;;;;0.80;0.80;;;-1.40;99.90;;;;;;5032848;28;20247;-77
2023/01/21 02:53:27;;;;;;;0.60;0.60;;;-1.40;99.90;;;;;;5015292;28;20217;-77
2023/01/21 02:55:55;;;;;;;0.70;0.70;;;-1.40;99.90;;;;;;5033241;28;20213;-77
2023/01/21 02:58:32;;;;;;;0.70;0.70;;;-1.40;99.90;;;;;;5032785;28;20194;-74
2023/01/21 03:01:31;;;;;;;0.70;0.70;;;-1.40;99.90;;;;;;5032285;28;20679;-74
2023/01/21 03:04:18;;;;;;;0.60;0.60;;;-1.50;99.90;;;;;;5066849;28;20232;-74
2023/01/21 03:07:03;;;;;;;0.70;0.70;;;-1.50;99.90;;;;;;5052715;28;20232;-74
2023/01/21 03:09:31;;;;;;;0.73;0.73;;;-1.50;99.90;;;;;;5052631;28;20189;-73
2023/01/21 03:11:57;;;;;;;0.63;0.63;;;-1.40;99.90;;;;;;5052578;28;20671;-74
2023/01/21 03:17:36;;;;;;;0.73;0.73;;;-1.50;99.90;;;;;;5052784;28;20240;-74
2023/01/21 03:20:13;;;;;;;0.60;0.60;;;-1.50;99.90;;;;;;5052606;28;20204;-74
2023/01/21 03:22:40;;;;;;;0.70;0.70;;;-1.50;99.90;;;;;;5052232;28;20638;-74
2023/01/21 03:25:10;;;;;;;0.70;0.70;;;-1.50;99.90;;;;;;5052565;28;20213;-74
2023/01/21 03:27:41;;;;;;;0.70;0.70;;;-1.50;99.90;;;;;;5051101;28;20656;-75
2023/01/21 03:30:13;;;;;;;0.80;0.80;;;-1.50;99.90;;;;;;5034617;28;20274;-75
2023/01/21 03:32:42;;;;;;;0.65;0.65;;;-1.50;99.90;;;;;;5050779;28;20685;-74
2023/01/21 03:35:08;;;;;;;0.65;0.65;;;-1.50;99.90;;;;;;5052519;28;20537;-74
2023/01/21 03:37:45;;;;;;;0.95;0.93;;;-1.50;99.90;;;;;;5052277;28;20194;-74
2023/01/21 03:40:43;;;;;;;0.70;0.70;;;-1.50;99.90;;;;;;5052384;28;20219;-74
2023/01/21 03:43:09;;;;;;;0.70;0.70;;;-1.50;99.90;;;;;;5035044;28;20249;-75
2023/01/21 03:45:39;;;;;;;1.95;1.75;;;-1.50;99.90;;;;;;5052154;28;20193;-74
2023/01/21 03:48:15;;;;;;;0.70;0.70;;;-1.50;99.90;;;;;;5052365;28;20212;-74
2023/01/21 03:50:47;;;;;;;0.70;0.70;;;-1.60;99.90;;;;;;5052998;28;20189;-74
2023/01/21 03:53:13;;;;;;;0.63;0.63;;;-1.60;99.90;;;;;;5056200;28;20220;-75
2023/01/21 03:55:38;;;;;;;0.70;0.70;;;-1.60;99.90;;;;;;5055958;28;20189;-74
2023/01/21 03:58:04;;;;;;;0.70;0.70;;;-1.60;99.90;;;;;;5054973;28;20201;-74
2023/01/21 04:00:30;;;;;;;0.60;0.60;;;-1.60;99.90;;;;;;5038070;28;20675;-75
2023/01/21 04:02:55;;;;;;;0.60;0.60;;;-1.60;99.90;;;;;;5063404;28;20282;-75
2023/01/21 04:05:21;;;;;;;0.60;0.60;;;-1.70;99.90;;;;;;5055780;28;20208;-74
2023/01/21 04:07:47;;;;;;;0.60;0.60;;;-1.70;99.90;;;;;;5055858;28;20202;-74
2023/01/21 04:10:12;;;;;;;0.80;0.80;;;-1.70;99.90;;;;;;5056030;28;20263;-75
2023/01/21 04:12:39;;;;;;;0.80;0.80;;;-1.70;99.90;;;;;;5054286;28;20556;-74
2023/01/21 04:15:05;;;;;;;0.70;0.70;;;-1.80;99.90;;;;;;5054572;28;20201;-75
2023/01/21 04:17:31;;;;;;;0.70;0.70;;;-1.80;99.90;;;;;;5055406;28;20209;-75
2023/01/21 04:19:57;;;;;;;0.70;0.70;;;-1.80;99.90;;;;;;5055896;28;20186;-75
2023/01/21 04:22:22;;;;;;;0.57;0.57;;;-1.80;99.90;;;;;;5055541;28;20673;-75
2023/01/21 04:24:48;;;;;;;0.70;0.70;;;-1.80;99.90;;;;;;5055714;28;20201;-74
2023/01/21 04:27:14;;;;;;;0.60;0.60;;;-1.80;99.90;;;;;;5054226;28;20296;-75
2023/01/21 04:29:39;;;;;;;0.90;0.90;;;-1.80;99.90;;;;;;5055197;28;20682;-75
2023/01/21 04:32:05;;;;;;;0.70;0.70;;;-1.80;99.90;;;;;;5037670;28;20292;-74
2023/01/21 04:34:31;;;;;;;0.60;0.60;;;-1.80;99.90;;;;;;5037325;28;20228;-75
2023/01/21 04:36:56;;;;;;;0.60;0.60;;;-1.90;99.90;;;;;;5037536;28;20216;-74
2023/01/21 04:39:22;;;;;;;1.02;1.02;;;-1.90;99.90;;;;;;5055100;28;20197;-75
2023/01/21 04:41:48;;;;;;;0.80;0.80;;;-1.90;99.90;;;;;;5055365;28;20190;-75
2023/01/21 04:44:14;;;;;;;0.60;0.60;;;-2.00;99.90;;;;;;5055269;28;20189;-74
2023/01/21 04:46:39;;;;;;;0.60;0.60;;;-2.00;99.90;;;;;;5053666;28;20216;-74
2023/01/21 04:49:05;;;;;;;0.70;0.70;;;-2.00;99.90;;;;;;5055248;28;20280;-74
2023/01/21 04:51:31;;;;;;;0.70;0.70;;;-2.00;99.90;;;;;;5055054;28;20276;-74
2023/01/21 04:53:56;;;;;;;0.80;0.80;;;-2.10;99.90;;;;;;5055330;28;20671;-73
2023/01/21 04:56:22;;;;;;;0.57;0.57;;;-2.10;99.90;;;;;;5054852;28;20198;-75
2023/01/21 04:58:48;;;;;;;0.70;0.70;;;-2.10;99.90;;;;;;5055041;28;20296;-75
2023/01/21 05:01:14;;;;;;;0.70;0.70;;;-2.10;99.90;;;;;;5054576;28;20197;-75
2023/01/21 05:03:39;;;;;;;0.60;0.60;;;-2.10;99.90;;;;;;5059935;28;20232;-75
2023/01/21 05:06:05;;;;;;;0.63;0.63;;;-2.10;99.90;;;;;;5074908;28;20197;-75
2023/01/21 05:08:31;;;;;;;0.60;0.60;;;-2.10;99.90;;;;;;5074701;28;20193;-75
2023/01/21 05:10:56;;;;;;;0.70;0.70;;;-2.10;99.90;;;;;;5074881;28;20239;-75
2023/01/21 05:13:22;;;;;;;0.70;0.70;;;-2.10;99.90;;;;;;5070834;28;20255;-75
2023/01/21 05:15:48;;;;;;;0.60;0.60;;;-2.10;99.90;;;;;;5054664;28;20189;-75
2023/01/21 05:18:14;;;;;;;0.70;0.70;;;-2.00;99.90;;;;;;5041057;28;20201;-75
2023/01/21 05:20:39;;;;;;;0.63;0.63;;;-2.10;99.90;;;;;;5034732;28;20195;-75
2023/01/21 05:23:05;;;;;;;0.70;0.70;;;-2.10;99.90;;;;;;5044242;28;20205;-74
2023/01/21 05:25:31;;;;;;;0.70;0.70;;;-2.20;99.90;;;;;;5054329;28;20259;-74
2023/01/21 05:27:56;;;;;;;0.80;0.80;;;-2.20;99.90;;;;;;5054602;28;20225;-75
2023/01/21 05:30:22;;;;;;;0.70;0.70;;;-2.20;99.90;;;;;;5036441;28;20276;-75
2023/01/21 05:32:52;;;;;;;0.70;0.70;;;-2.20;99.90;;;;;;5054397;28;20213;-74
2023/01/21 05:35:20;;;;;;;0.60;0.60;;;-2.20;99.90;;;;;;5054253;28;20197;-75
2023/01/21 05:37:46;;;;;;;0.70;0.70;;;-2.20;99.90;;;;;;5036611;28;20244;-74
2023/01/21 05:40:14;;;;;;;0.60;0.60;;;-2.30;99.90;;;;;;5054323;28;20189;-74
2023/01/21 05:42:41;;;;;;;0.65;0.65;;;-2.30;99.90;;;;;;5036332;28;20197;-75
2023/01/21 05:45:07;;;;;;;0.77;0.77;;;-2.30;99.90;;;;;;5053977;28;20201;-75
2023/01/21 05:47:32;;;;;;;1.52;1.42;;;-2.20;99.90;;;;;;5036099;28;20204;-75
2023/01/21 05:49:58;;;;;;;0.70;0.70;;;-2.20;99.90;;;;;;5054130;28;20197;-74
2023/01/21 05:52:24;;;;;;;0.63;0.63;;;-2.30;99.90;;;;;;5053755;28;20299;-74
2023/01/21 05:54:49;;;;;;;0.70;0.70;;;-2.40;99.90;;;;;;5054026;28;20216;-75
2023/01/21 05:57:15;;;;;;;0.70;0.70;;;-2.40;99.90;;;;;;5054030;28;20198;-74
2023/01/21 05:59:41;;;;;;;0.70;0.70;;;-2.50;99.90;;;;;;5057472;28;20189;-74
2023/01/21 06:02:06;;;;;;;0.80;0.80;;;-2.50;99.90;;;;;;5073478;28;20225;-75
2023/01/21 06:04:32;;;;;;;0.70;0.70;;;-2.50;99.90;;;;;;5073507;28;20197;-74
2023/01/21 06:06:58;;;;;;;0.60;0.60;;;-2.50;99.90;;;;;;5072501;28;20196;-75
2023/01/21 06:09:24;;;;;;;0.88;0.88;;;-2.50;99.90;;;;;;5071706;28;20212;-74
2023/01/21 06:11:49;;;;;;;0.60;0.60;;;-2.50;99.90;;;;;;5053666;28;20200;-74
2023/01/21 06:14:15;;;;;;;0.70;0.70;;;-2.50;99.90;;;;;;5053016;28;20198;-73
2023/01/21 06:16:41;;;;;;;0.73;0.73;;;-2.50;99.90;;;;;;5052431;28;20193;-73
2023/01/21 06:19:06;;;;;;;0.70;0.70;;;-2.50;99.90;;;;;;5033706;28;20213;-74
2023/01/21 06:21:32;;;;;;;0.70;0.70;;;-2.50;99.90;;;;;;5042913;28;20228;-74
2023/01/21 06:23:59;;;;;;;0.70;0.70;;;-2.50;99.90;;;;;;5035609;28;20198;-74
2023/01/21 06:26:25;;;;;;;0.70;0.70;;;-2.50;99.90;;;;;;5053200;28;20246;-74
2023/01/21 06:28:50;;;;;;;0.80;0.80;;;-2.50;99.90;;;;;;5035436;28;20205;-74
2023/01/21 06:31:16;;;;;;;0.70;0.70;;;-2.50;99.90;;;;;;5035673;28;20249;-74
2023/01/21 06:33:42;;;;;;;0.90;0.90;;;-2.50;99.90;;;;;;5052938;28;20723;-74
2023/01/21 06:36:08;;;;;;;0.70;0.70;;;-2.50;99.90;;;;;;5051997;28;20340;-75
2023/01/21 06:38:34;;;;;;;0.70;0.70;;;-2.50;99.90;;;;;;5052954;28;20212;-75
2023/01/21 06:41:01;;;;;;;0.73;0.73;;;-2.60;99.90;;;;;;5053281;28;20218;-75
2023/01/21 06:43:27;;;;;;;0.75;0.75;;;-2.60;99.90;;;;;;5052869;28;20212;-74
2023/01/21 06:45:53;;;;;;;0.70;0.70;;;-2.60;99.90;;;;;;5053095;28;20194;-74
2023/01/21 06:48:19;;;;;;;0.80;0.80;;;-2.60;99.90;;;;;;5053001;28;20200;-75
2023/01/21 06:50:45;;;;;;;0.68;0.68;;;-2.60;99.90;;;;;;5053206;28;20200;-73
2023/01/21 06:53:11;;;;;;;0.80;0.80;;;-2.60;99.90;;;;;;5051714;28;20217;-75
2023/01/21 06:55:36;;;;;;;0.80;0.80;;;-2.60;99.90;;;;;;5052488;28;20608;-74
2023/01/21 06:58:02;;;;;;;0.63;0.63;;;-2.60;99.90;;;;;;5053009;28;20268;-74
2023/01/21 07:00:28;;;;;;;0.70;0.70;;;-2.60;99.90;;;;;;5052620;28;20201;-75
2023/01/21 07:02:58;;;;;;;0.70;0.70;;;-2.50;99.90;;;;;;5052456;28;20319;-74
2023/01/21 07:05:23;;;;;;;0.77;0.77;;;-2.50;99.90;;;;;;5052610;28;20646;-75
2023/01/21 07:07:52;;;;;;;0.70;0.70;;;-2.50;99.90;;;;;;5052680;28;20280;-74
2023/01/21 07:10:18;;;;;;;0.70;0.70;;;-2.50;99.90;;;;;;5051424;28;20684;-75
2023/01/21 07:12:43;;;;;;;0.70;0.70;;;-2.50;99.90;;;;;;5052477;28;20241;-74
2023/01/21 07:15:09;;;;;;;0.70;0.70;;;-2.50;99.90;;;;;;5051302;28;20198;-73
2023/01/21 07:17:35;;;;;;;0.70;0.70;;;-2.50;99.90;;;;;;5051857;28;20198;-75
2023/01/21 07:20:00;;;;;;;0.68;0.68;;;-2.40;99.90;;;;;;5052646;28;20192;-75
2023/01/21 07:22:27;;;;;;;0.82;0.82;;;-2.40;99.90;;;;;;5052372;28;20197;-75
2023/01/21 07:24:52;;;;;;;0.70;0.70;;;-2.30;99.90;;;;;;5053933;28;20211;-74
2023/01/21 07:27:18;;;;;;;1.08;1.00;;;-2.20;99.90;;;;;;5055124;28;20189;-75
2023/01/21 07:29:44;;;;;;;1.00;1.00;;;-2.20;99.90;;;;;;5055004;28;20209;-75
2023/01/21 07:32:09;;;;;;;1.05;1.05;;;-2.30;99.90;;;;;;5053869;28;20197;-74
2023/01/21 07:34:35;;;;;;;0.70;0.70;;;-2.40;99.90;;;;;;5054889;28;20299;-74
2023/01/21 07:37:01;;;;;;;1.20;1.10;;;-2.40;99.90;;;;;;5055290;28;20193;-75
2023/01/21 07:39:26;;;;;;;0.65;0.65;;;-2.40;99.90;;;;;;5053743;28;20224;-74
2023/01/21 07:41:52;;;;;;;0.70;0.70;;;-2.40;99.90;;;;;;5055318;28;20675;-74
2023/01/21 07:44:18;;;;;;;0.90;0.90;;;-2.40;99.90;;;;;;5054906;28;20268;-75
2023/01/21 07:46:44;;;;;;;1.42;1.33;;;-2.40;99.90;;;;;;5053487;28;20205;-74
2023/01/21 07:49:11;;;;;;;0.60;0.60;;;-2.40;99.90;;;;;;5053584;28;20197;-74
2023/01/21 07:51:37;;;;;;;0.70;0.70;;;-2.50;99.90;;;;;;5054569;28;20670;-75
2023/01/21 07:54:03;;;;;;;0.70;0.70;;;-2.50;99.90;;;;;;5054561;28;20190;-75
2023/01/21 07:56:29;;;;;;;0.70;0.70;;;-2.50;99.90;;;;;;5054804;28;20186;-74
2023/01/21 07:58:54;;;;;;;0.75;0.75;;;-2.50;99.90;;;;;;5054775;28;20216;-74
2023/01/21 08:01:20;;;;;;;0.65;0.65;;;-2.50;99.90;;;;;;5054546;28;20232;-74
2023/01/21 08:03:46;;;;;;;0.60;0.60;;;-2.50;99.90;;;;;;5020638;28;20691;-73
2023/01/21 08:06:12;;;;;;;0.60;0.60;;;-2.40;99.90;;;;;;5034681;28;20198;-73
2023/01/21 08:08:37;;;;;;;0.63;0.63;;;-2.40;99.90;;;;;;5035774;28;20216;-73
2023/01/21 08:11:03;;;;;;;0.80;0.80;;;-2.40;99.90;;;;;;5034793;28;20256;-74
2023/01/21 08:13:29;;;;;;;6.88;2.92;;;-2.40;99.90;;;;;;5035586;28;20218;-74
2023/01/21 08:15:55;;;;;;;0.90;0.90;;;-2.40;99.90;;;;;;5034588;28;20652;-74
2023/01/21 08:18:23;;;;;;;2.20;2.00;;;-2.40;99.90;;;;;;5035461;28;20202;-74
2023/01/21 08:20:54;;;;;;;0.73;0.73;;;-2.40;99.90;;;;;;5035862;28;20205;-74
2023/01/21 08:23:19;;;;;;;0.60;0.60;;;-2.30;99.90;;;;;;5034297;28;20206;-74
2023/01/21 08:25:45;;;;;;;0.80;0.80;;;-2.30;99.90;;;;;;5031092;28;20222;-74
2023/01/21 08:28:11;;;;;;;1.30;1.20;;;-2.20;99.90;;;;;;5015884;28;20201;-73
2023/01/21 08:30:37;;;;;;;0.60;0.60;;;-2.30;99.90;;;;;;4997907;28;20202;-74
2023/01/21 08:33:03;;;;;;;0.73;0.73;;;-2.20;99.90;;;;;;5015793;28;20199;-73
2023/01/21 08:35:29;;;;;;;0.90;0.90;;;-2.20;99.90;;;;;;5015578;28;20723;-73
2023/01/21 08:37:56;;;;;;;1.40;1.30;;;-2.30;99.90;;;;;;5015196;28;20760;-73
2023/01/21 08:40:25;;;;;;;2.42;2.03;;;-2.20;99.90;;;;;;5030676;28;20206;-73
2023/01/21 08:42:51;;;;;;;0.80;0.80;;;-2.30;99.90;;;;;;5015646;28;20198;-73
2023/01/21 08:45:17;;;;;;;1.63;1.35;;;-2.30;99.90;;;;;;5015657;28;20274;-73
2023/01/21 08:47:43;;;;;;;0.90;0.90;;;-2.30;99.90;;;;;;5015418;28;20625;-73
2023/01/21 08:50:09;;;;;;;0.60;0.60;;;-2.30;99.90;;;;;;5033054;28;20683;-73
2023/01/21 08:52:35;;;;;;;0.80;0.80;;;-2.20;99.90;;;;;;5033724;28;20228;-73
2023/01/21 08:55:00;;;;;;;0.60;0.60;;;-2.20;99.90;;;;;;5033766;28;20707;-72
2023/01/21 08:57:26;;;;;;;0.70;0.70;;;-2.10;99.90;;;;;;5034957;28;20575;-73
2023/01/21 08:59:52;;;;;;;0.50;0.50;;;-2.10;99.90;;;;;;5033638;28;20194;-73
2023/01/21 09:02:18;;;;;;;0.80;0.80;;;-2.10;99.90;;;;;;5039411;28;20234;-74
2023/01/21 09:04:44;;;;;;;1.35;1.30;;;-2.00;99.90;;;;;;5054725;28;20204;-73
2023/01/21 09:07:10;;;;;;;3.33;2.10;;;-1.90;99.90;;;;;;5053387;28;20552;-73
2023/01/21 09:09:36;;;;;;;1.02;0.98;;;-1.90;99.90;;;;;;5054477;28;20208;-72
2023/01/21 09:12:03;;;;;;;1.60;1.50;;;-2.00;99.90;;;;;;5054799;28;20205;-73
2023/01/21 09:14:29;;;;;;;1.05;1.05;;;-2.00;99.90;;;;;;5054454;28;20268;-74
2023/01/21 09:16:55;;;;;;;0.60;0.60;;;-2.10;99.90;;;;;;5054507;28;20754;-73
2023/01/21 09:19:22;;;;;;;0.85;0.85;;;-2.10;99.90;;;;;;5053279;28;20205;-73
2023/01/21 09:21:48;;;;;;;0.50;0.50;;;-2.00;99.90;;;;;;5054777;28;20197;-73
2023/01/21 09:24:14;;;;;;;0.60;0.60;;;-1.90;99.90;;;;;;5054914;28;20529;-73
2023/01/21 09:26:43;;;;;;;0.77;0.77;;;-1.90;99.90;;;;;;5054227;28;20196;-73
2023/01/21 09:29:09;;;;;;;3.92;1.95;;;-1.90;99.90;;;;;;5054407;28;20221;-74
2023/01/21 09:31:35;;;;;;;1.30;1.20;;;-1.90;99.90;;;;;;5036420;28;20663;-73
2023/01/21 09:34:03;;;;;;;0.70;0.70;;;-1.80;99.90;;;;;;5053035;28;20217;-73
2023/01/21 09:36:31;;;;;;;0.60;0.60;;;-1.80;99.90;;;;;;5054037;28;20189;-73
2023/01/21 09:38:57;;;;;;;0.70;0.70;;;-1.80;99.90;;;;;;5054588;28;20593;-74
2023/01/21 09:41:29;;;;;;;0.70;0.70;;;-1.70;99.90;;;;;;5054005;28;20189;-74
2023/01/21 09:44:18;;;;;;;0.75;0.75;;;-1.60;99.90;;;;;;5052892;28;20205;-73
2023/01/21 09:47:08;;;;;;;1.52;1.42;;;-1.70;99.90;;;;;;5034178;28;20248;-74
2023/01/21 09:49:41;;;;;;;4.85;2.00;;;-1.70;99.90;;;;;;5032915;28;20190;-74
2023/01/21 09:52:29;;;;;;;1.30;1.20;;;-1.70;99.90;;;;;;5034109;28;20208;-74
2023/01/21 09:54:56;;;;;;;3.20;1.77;;;-1.70;99.90;;;;;;5038575;28;20199;-74
2023/01/21 09:57:37;;;;;;;0.63;0.63;;;-1.70;99.90;;;;;;5053713;28;20427;-75
2023/01/21 10:00:18;;;;;;;1.27;0.75;;;-1.70;99.90;;;;;;5053892;28;20190;-75
2023/01/21 10:03:15;;;;;;;1.10;1.02;;;-1.60;99.90;;;;;;5053183;28;20329;-74
2023/01/21 10:05:55;;;;;;;1.48;1.40;;;-1.70;99.90;;;;;;5053486;28;20272;-75
2023/01/21 10:08:32;;;;;;;0.80;0.80;;;-1.70;99.90;;;;;;5053462;28;20319;-76
2023/01/21 10:11:19;;;;;;;0.68;0.68;;;-1.80;99.90;;;;;;5053708;28;20201;-75
2023/01/21 10:14:16;;;;;;;0.85;0.85;;;-1.80;99.90;;;;;;5053574;28;20213;-75
2023/01/21 10:17:00;;;;;;;0.77;0.77;;;-1.80;99.90;;;;;;5051728;28;20666;-74
2023/01/21 10:19:39;;;;;;;1.00;1.00;;;-1.70;99.90;;;;;;5053320;28;20192;-76
2023/01/21 10:22:14;;;;;;;0.70;0.70;;;-1.60;99.90;;;;;;5053432;28;20202;-73
2023/01/21 10:24:48;;;;;;;0.80;0.80;;;-1.50;99.90;;;;;;5053084;28;20208;-73
2023/01/21 10:27:17;;;;;;;1.73;1.63;;;-1.50;99.90;;;;;;5053398;28;20655;-72
2023/01/21 10:29:45;;;;;;;0.63;0.63;;;-1.50;99.90;;;;;;5053438;28;20224;-73
2023/01/21 10:32:17;;;;;;;0.85;0.85;;;-1.50;99.90;;;;;;5053262;28;20223;-73
2023/01/21 10:34:54;;;;;;;0.60;0.60;;;-1.60;99.90;;;;;;5035147;28;20194;-73
2023/01/21 10:37:22;;;;;;;0.70;0.70;;;-1.70;99.90;;;;;;5053020;28;20185;-74
2023/01/21 10:40:00;;;;;;;0.68;0.68;;;-1.70;99.90;;;;;;5053147;28;20193;-73
2023/01/21 10:42:45;;;;;;;0.63;0.63;;;-1.70;99.90;;;;;;5064458;28;20201;-73
2023/01/21 10:45:16;;;;;;;0.70;0.70;;;-1.70;99.90;;;;;;5053109;28;20197;-74
2023/01/21 10:48:09;;;;;;;0.70;0.70;;;-1.80;99.90;;;;;;5051649;28;20284;-75
2023/01/21 10:50:53;;;;;;;0.70;0.70;;;-1.80;99.90;;;;;;5051488;28;20244;-73
2023/01/21 10:53:28;;;;;;;2.83;1.55;;;-1.70;99.90;;;;;;5052833;28;20675;-74
2023/01/21 10:56:09;;;;;;;1.00;1.00;;;-1.70;99.90;;;;;;5051573;28;20247;-75
2023/01/21 10:59:03;;;;;;;0.90;0.90;;;-1.80;99.90;;;;;;5052731;28;20189;-73
2023/01/21 11:01:34;;;;;;;1.85;1.75;;;-1.80;99.90;;;;;;5052512;28;20198;-74
2023/01/21 11:04:06;;;;;;;4.22;2.70;;;-1.90;99.90;;;;;;5015962;28;20570;-73
2023/01/21 11:06:33;;;;;;;9.27;2.90;;;-1.90;99.90;;;;;;5014782;28;20206;-75
2023/01/21 11:09:04;;;;;;;0.85;0.85;;;-1.90;99.90;;;;;;5015121;28;20206;-73
2023/01/21 11:11:34;;;;;;;0.90;0.90;;;-1.80;99.90;;;;;;5014901;28;20633;-73
2023/01/21 11:14:00;;;;;;;0.70;0.70;;;-1.80;99.90;;;;;;5032534;28;20736;-72
2023/01/21 11:16:42;;;;;;;0.93;0.93;;;-1.90;99.90;;;;;;5032575;28;20758;-73
2023/01/21 11:19:15;;;;;;;1.02;1.00;;;-2.00;99.90;;;;;;5013089;28;20739;-74
2023/01/21 11:22:01;;;;;;;6.70;1.65;;;-2.00;99.90;;;;;;5012812;28;20608;-75
2023/01/21 11:24:28;;;;;;;1.35;1.25;;;-2.10;99.90;;;;;;5012800;28;20199;-74
2023/01/21 11:26:57;;;;;;;1.10;1.10;;;-2.10;99.90;;;;;;5011611;28;20203;-74
2023/01/21 11:29:24;;;;;;;1.30;1.20;;;-2.10;99.90;;;;;;5012816;28;20201;-74
2023/01/21 11:32:02;;;;;;;0.77;0.77;;;-2.20;99.90;;;;;;5012955;28;20695;-74
2023/01/21 11:34:28;;;;;;;1.52;1.42;;;-2.20;99.90;;;;;;5012705;28;20190;-74
2023/01/21 11:37:05;;;;;;;0.80;0.80;;;-2.20;99.90;;;;;;5013025;28;20587;-73
2023/01/21 11:39:34;;;;;;;0.80;0.80;;;-2.20;99.90;;;;;;5032422;28;20198;-72
2023/01/21 11:42:06;;;;;;;0.73;0.73;;;-2.10;99.90;;;;;;5032488;28;20190;-73
2023/01/21 11:44:33;;;;;;;0.80;0.80;;;-2.10;99.90;;;;;;5030953;28;20568;-73
2023/01/21 11:46:58;;;;;;;2.08;1.88;;;-1.90;99.90;;;;;;5014965;28;20256;-74
2023/01/21 11:49:27;;;;;;;0.80;0.80;;;-2.00;99.90;;;;;;5032316;28;20599;-74
2023/01/21 11:52:25;;;;;;;0.75;0.75;;;-1.90;99.90;;;;;;5032405;28;20201;-73
2023/01/21 11:54:51;;;;;;;0.60;0.60;;;-1.90;99.90;;;;;;4982509;28;20207;-73
2023/01/21 11:57:23;;;;;;;0.95;0.95;;;-2.00;99.90;;;;;;5032675;28;20241;-76
2023/01/21 11:59:49;;;;;;;0.80;0.80;;;-2.00;99.90;;;;;;5032270;28;20664;-77
2023/01/21 12:02:26;;;;;;;0.80;0.80;;;-2.00;99.90;;;;;;5018395;28;20726;-74
2023/01/21 12:05:03;;;;;;;0.70;0.70;;;-2.00;99.90;;;;;;5052187;28;20216;-74
2023/01/21 12:07:35;;;;;;;5.90;4.43;;;-2.10;99.90;;;;;;5051943;28;20197;-74
2023/01/21 12:10:15;;;;;;;2.08;1.92;;;-2.10;99.90;;;;;;5052112;28;20263;-73
2023/01/21 12:13:09;;;;;;;2.28;1.60;;;-2.10;99.90;;;;;;5052980;28;20216;-73
2023/01/21 12:15:40;;;;;;;1.00;1.00;;;-2.10;99.90;;;;;;5055690;28;20200;-73
2023/01/21 12:18:33;;;;;;;1.20;1.10;;;-2.00;99.90;;;;;;5054263;28;20216;-74
2023/01/21 12:21:10;;;;;;;0.65;0.65;;;-2.10;99.90;;;;;;5054724;28;20212;-73
2023/01/21 12:23:50;;;;;;;1.00;0.93;;;-2.10;99.90;;;;;;5055584;28;20193;-74
2023/01/21 12:26:40;;;;;;;0.60;0.60;;;-2.20;99.90;;;;;;5054952;28;20208;-74
2023/01/21 12:29:45;;;;;;;0.60;0.60;;;-2.30;99.90;;;;;;5055653;28;20197;-74
2023/01/21 12:32:20;;;;;;;0.82;0.82;;;-2.50;99.90;;;;;;5055650;28;20248;-74
2023/01/21 12:35:07;;;;;;;0.60;0.60;;;-2.50;99.90;;;;;;5055296;28;20279;-74
2023/01/21 12:37:35;;;;;;;0.57;0.57;;;-2.60;99.90;;;;;;5055354;28;20667;-74
2023/01/21 12:40:12;;;;;;;0.90;0.90;;;-2.60;99.90;;;;;;5055388;28;20221;-74
2023/01/21 12:42:43;;;;;;;0.70;0.70;;;-2.60;99.90;;;;;;5070498;28;20205;-74
2023/01/21 12:45:38;;;;;;;1.10;1.10;;;-2.60;99.90;;;;;;5055244;28;20205;-75
2023/01/21 12:48:27;;;;;;;0.90;0.85;;;-2.60;99.90;;;;;;5035766;28;20702;-75
2023/01/21 12:51:00;;;;;;;1.30;1.20;;;-2.60;99.90;;;;;;5055229;28;20201;-75
2023/01/21 12:53:48;;;;;;;0.80;0.80;;;-2.60;99.90;;;;;;5054843;28;20217;-76
2023/01/21 12:56:37;;;;;;;1.95;1.63;;;-2.60;99.90;;;;;;5053637;28;20202;-75
2023/01/21 12:59:24;;;;;;;0.80;0.80;;;-2.50;99.90;;;;;;5055136;28;20198;-75
2023/01/21 13:02:17;;;;;;;0.90;0.90;;;-2.50;99.90;;;;;;5054816;28;20201;-75
2023/01/21 13:04:52;;;;;;;0.82;0.82;;;-2.50;99.90;;;;;;5053533;28;20263;-75
2023/01/21 13:07:44;;;;;;;0.77;0.77;;;-2.60;99.90;;;;;;5038757;28;20200;-75